Time;durP1;ratioP1;P1;durP2;ratioP2;P2;SDS_P1;SDS_P2;PMS_P1;PMS_P2;Temp;Humidity;BMP_temperature;BMP_pressure;BME280_temperature;BME280_humidity;BME280_pressure;Samples;Min_cycle;Max_cycle;Signal;HPM_P1;HPM_P2
2023/05/17 00:01:09;;;;;;;7.63;3.07;;;9.40;99.90;;;;;;5066192;28;20235;-67
2023/05/17 00:03:36;;;;;;;9.17;3.87;;;9.30;99.90;;;;;;5051337;28;20222;-68
2023/05/17 00:06:03;;;;;;;4.47;2.77;;;9.30;99.90;;;;;;5048847;28;20285;-69
2023/05/17 00:08:30;;;;;;;7.00;3.47;;;9.20;99.90;;;;;;5054713;28;20879;-66
2023/05/17 00:10:57;;;;;;;9.80;3.40;;;9.20;99.90;;;;;;5075468;28;20812;-69
2023/05/17 00:13:24;;;;;;;9.77;3.63;;;9.10;99.90;;;;;;5038104;28;20700;-69
2023/05/17 00:15:51;;;;;;;6.90;3.30;;;9.10;99.90;;;;;;5049975;28;20183;-69
2023/05/17 00:18:18;;;;;;;6.53;3.17;;;9.10;99.90;;;;;;5072930;28;20197;-67
2023/05/17 00:20:46;;;;;;;7.17;3.20;;;9.00;99.90;;;;;;5070737;28;20655;-66
2023/05/17 00:23:13;;;;;;;8.63;3.13;;;9.00;99.90;;;;;;5070280;28;20682;-67
2023/05/17 00:25:40;;;;;;;7.10;3.20;;;9.00;99.90;;;;;;5059618;28;20260;-67
2023/05/17 00:28:06;;;;;;;7.17;3.50;;;8.90;99.90;;;;;;5050707;28;20200;-68
2023/05/17 00:30:33;;;;;;;8.33;3.13;;;8.90;99.90;;;;;;5043102;28;20198;-69
2023/05/17 00:33:03;;;;;;;7.23;3.43;;;8.90;99.90;;;;;;5056033;28;20567;-69
2023/05/17 00:35:30;;;;;;;7.80;3.10;;;8.90;99.90;;;;;;5058023;28;20193;-70
2023/05/17 00:37:57;;;;;;;9.07;3.37;;;8.90;99.90;;;;;;5061350;28;20198;-68
2023/05/17 00:40:24;;;;;;;7.27;3.47;;;8.80;99.90;;;;;;5051463;28;20187;-68
2023/05/17 00:42:51;;;;;;;6.90;4.10;;;8.80;99.90;;;;;;5055130;28;20202;-64
2023/05/17 00:45:20;;;;;;;9.63;3.33;;;8.80;99.90;;;;;;5049229;28;20541;-65
2023/05/17 00:47:48;;;;;;;10.87;4.33;;;8.80;99.90;;;;;;5051081;28;20202;-65
2023/05/17 00:50:15;;;;;;;11.63;3.57;;;8.70;99.90;;;;;;5031220;28;20275;-64
2023/05/17 00:52:42;;;;;;;9.73;4.43;;;8.70;99.90;;;;;;5058178;28;20246;-64
2023/05/17 00:55:09;;;;;;;7.73;4.20;;;8.70;99.90;;;;;;5067355;28;20205;-65
2023/05/17 00:57:36;;;;;;;9.50;4.07;;;8.60;99.90;;;;;;5061413;28;20226;-64
2023/05/17 01:00:04;;;;;;;22.07;11.73;;;8.60;99.90;;;;;;5066874;28;20667;-72
2023/05/17 01:02:31;;;;;;;12.87;4.70;;;8.60;99.90;;;;;;5050225;28;20254;-68
2023/05/17 01:04:58;;;;;;;10.03;5.23;;;8.60;99.90;;;;;;5054587;23;20270;-69
2023/05/17 01:07:27;;;;;;;10.00;5.20;;;8.50;99.90;;;;;;5069148;28;20187;-69
2023/05/17 01:09:54;;;;;;;13.30;5.37;;;8.50;99.90;;;;;;5069905;28;21003;-69
2023/05/17 01:13:00;;;;;;;11.50;5.93;;;8.50;99.90;;;;;;5065829;28;20187;-69
2023/05/17 01:15:35;;;;;;;6.83;4.13;;;8.40;99.90;;;;;;5026898;28;20219;-69
2023/05/17 01:18:11;;;;;;;7.07;3.73;;;8.30;99.90;;;;;;5079769;28;20203;-68
2023/05/17 01:20:42;;;;;;;8.77;4.40;;;8.30;99.90;;;;;;5090218;28;20269;-68
2023/05/17 01:23:55;;;;;;;11.83;4.60;;;8.40;99.90;;;;;;5083859;28;20707;-68
2023/05/17 01:26:28;;;;;;;13.97;5.00;;;8.30;99.90;;;;;;5006999;28;20713;-69
2023/05/17 01:28:58;;;;;;;11.93;5.73;;;8.30;99.90;;;;;;5008147;28;20208;-69
2023/05/17 01:31:26;;;;;;;11.00;4.83;;;8.30;99.90;;;;;;5029584;28;20206;-69
2023/05/17 01:33:56;;;;;;;13.23;4.43;;;8.40;99.90;;;;;;5069851;28;20305;-68
2023/05/17 01:36:25;;;;;;;10.83;5.00;;;8.30;99.90;;;;;;5089293;28;20625;-69
2023/05/17 01:38:52;;;;;;;13.37;4.77;;;8.30;99.90;;;;;;5090598;28;20194;-69
2023/05/17 01:41:29;;;;;;;8.87;3.87;;;8.20;99.90;;;;;;5090008;28;20197;-70
2023/05/17 01:44:14;;;;;;;11.00;3.93;;;8.20;99.90;;;;;;5057298;28;21057;-69
2023/05/17 01:46:42;;;;;;;10.37;4.97;;;8.20;99.90;;;;;;5071696;28;20598;-67
2023/05/17 01:49:28;;;;;;;10.70;5.07;;;8.20;99.90;;;;;;5065690;28;20566;-68
2023/05/17 01:52:14;;;;;;;9.40;4.30;;;8.20;99.90;;;;;;5070799;28;20210;-67
2023/05/17 01:54:55;;;;;;;17.33;5.50;;;8.20;99.90;;;;;;5085634;28;20539;-68
2023/05/17 01:57:28;;;;;;;11.33;5.10;;;8.20;99.90;;;;;;5085952;28;20658;-66
2023/05/17 01:59:59;;;;;;;14.90;8.17;;;8.20;99.90;;;;;;5073504;28;20190;-66
2023/05/17 02:02:28;;;;;;;10.07;4.87;;;8.10;99.90;;;;;;5071483;28;20194;-67
2023/05/17 02:04:57;;;;;;;19.33;6.30;;;8.10;99.90;;;;;;5074500;28;20233;-66
2023/05/17 02:07:24;;;;;;;14.80;5.70;;;8.00;99.90;;;;;;5083626;28;20187;-66
2023/05/17 02:09:54;;;;;;;12.37;4.57;;;8.00;99.90;;;;;;5091157;28;20240;-64
2023/05/17 02:12:21;;;;;;;9.17;4.53;;;8.00;99.90;;;;;;5057165;28;20620;-65
2023/05/17 02:14:48;;;;;;;10.87;5.57;;;7.90;99.90;;;;;;5066429;28;20202;-64
2023/05/17 02:17:16;;;;;;;12.27;4.73;;;7.90;99.90;;;;;;5078597;28;20605;-64
2023/05/17 02:19:46;;;;;;;10.57;3.80;;;8.10;99.90;;;;;;5090013;28;20193;-69
2023/05/17 02:22:13;;;;;;;7.13;4.00;;;8.30;99.90;;;;;;5085872;28;20213;-70
2023/05/17 02:24:40;;;;;;;14.07;7.30;;;8.60;99.90;;;;;;5055390;28;20198;-70
2023/05/17 02:27:07;;;;;;;14.47;7.53;;;8.80;99.90;;;;;;5071952;28;20675;-69
2023/05/17 02:29:34;;;;;;;20.93;11.93;;;9.00;99.90;;;;;;5072275;28;20239;-69
2023/05/17 02:32:01;;;;;;;26.50;15.67;;;9.20;99.90;;;;;;5070637;28;20552;-69
2023/05/17 02:34:28;;;;;;;17.33;8.87;;;9.30;99.90;;;;;;5087623;28;20221;-70
2023/05/17 02:36:55;;;;;;;26.63;15.33;;;9.50;99.90;;;;;;5072220;28;20194;-70
2023/05/17 02:39:22;;;;;;;20.03;12.50;;;9.50;99.90;;;;;;5080451;28;20187;-70
2023/05/17 02:41:49;;;;;;;19.07;12.40;;;9.50;99.90;;;;;;5088697;28;20183;-69
2023/05/17 02:44:16;;;;;;;11.97;4.73;;;9.60;99.90;;;;;;5071177;28;20198;-68
2023/05/17 02:46:43;;;;;;;12.30;5.67;;;9.40;99.90;;;;;;5071996;28;20194;-68
2023/05/17 02:49:11;;;;;;;12.80;6.07;;;9.20;99.90;;;;;;5072743;28;20563;-68
2023/05/17 02:51:39;;;;;;;11.93;5.80;;;9.10;99.90;;;;;;5055967;28;20187;-68
2023/05/17 02:54:06;;;;;;;16.43;5.23;;;9.00;99.90;;;;;;5085160;28;20210;-68
2023/05/17 02:56:34;;;;;;;13.83;5.00;;;8.90;99.90;;;;;;5079267;28;20193;-68
2023/05/17 02:59:01;;;;;;;13.73;5.53;;;9.00;99.90;;;;;;5069879;28;20247;-68
2023/05/17 03:01:29;;;;;;;15.70;5.57;;;8.90;99.90;;;;;;5067822;28;20282;-69
2023/05/17 03:03:59;;;;;;;16.87;7.37;;;8.90;99.90;;;;;;5071031;28;20285;-69
2023/05/17 03:06:26;;;;;;;16.13;7.10;;;8.80;99.90;;;;;;5067606;28;20198;-68
2023/05/17 03:08:53;;;;;;;11.20;5.23;;;8.80;99.90;;;;;;5071978;28;20194;-68
2023/05/17 03:11:21;;;;;;;14.33;7.07;;;8.80;99.90;;;;;;5069910;28;20194;-70
2023/05/17 03:13:51;;;;;;;16.50;8.00;;;8.90;99.90;;;;;;5069614;28;20214;-68
2023/05/17 03:16:22;;;;;;;14.73;6.53;;;9.00;99.90;;;;;;5069251;28;20606;-68
2023/05/17 03:18:51;;;;;;;19.60;8.87;;;9.00;99.90;;;;;;5070526;28;20717;-69
2023/05/17 03:21:19;;;;;;;15.63;6.27;;;8.90;99.90;;;;;;5086471;28;20564;-69
2023/05/17 03:23:47;;;;;;;13.63;4.83;;;8.80;99.90;;;;;;5071153;28;20186;-67
2023/05/17 03:26:14;;;;;;;12.63;4.90;;;8.70;99.90;;;;;;5088523;28;20221;-67
2023/05/17 03:28:46;;;;;;;18.17;6.90;;;8.60;99.90;;;;;;5073095;28;20198;-67
2023/05/17 03:31:14;;;;;;;17.40;6.33;;;8.60;99.90;;;;;;5067069;28;20198;-64
2023/05/17 03:33:41;;;;;;;14.10;5.43;;;8.70;99.90;;;;;;5067711;28;20296;-64
2023/05/17 03:36:08;;;;;;;14.07;5.83;;;8.70;99.90;;;;;;5078038;28;20258;-65
2023/05/17 03:38:35;;;;;;;11.07;5.83;;;8.80;99.90;;;;;;5072579;28;20194;-66
2023/05/17 03:41:03;;;;;;;19.17;9.73;;;8.90;99.90;;;;;;5088830;28;20232;-70
2023/05/17 03:43:30;;;;;;;14.50;5.80;;;8.80;99.90;;;;;;5059015;28;20210;-66
2023/05/17 03:45:58;;;;;;;17.43;8.53;;;8.80;99.90;;;;;;5051880;28;20187;-70
2023/05/17 03:48:27;;;;;;;25.20;11.27;;;8.80;99.90;;;;;;5066510;28;20229;-71
2023/05/17 03:50:54;;;;;;;14.13;6.13;;;9.20;99.90;;;;;;5078992;28;20740;-69
2023/05/17 03:53:21;;;;;;;21.90;13.60;;;9.30;99.90;;;;;;5059739;28;21608;-72
2023/05/17 03:55:48;;;;;;;18.00;7.17;;;9.40;99.90;;;;;;5083340;28;20264;-70
2023/05/17 03:58:17;;;;;;;14.67;6.33;;;9.40;99.90;;;;;;5069204;28;20191;-69
2023/05/17 04:00:44;;;;;;;17.40;9.53;;;9.40;99.90;;;;;;5068416;28;20702;-71
2023/05/17 04:03:15;;;;;;;15.07;8.43;;;9.30;99.90;;;;;;5050996;28;20217;-70
2023/05/17 04:05:45;;;;;;;20.80;7.73;;;9.50;99.90;;;;;;5081097;28;20187;-72
2023/05/17 04:08:13;;;;;;;15.90;9.20;;;9.50;99.90;;;;;;5068173;28;20190;-70
2023/05/17 04:10:41;;;;;;;15.87;6.57;;;9.60;99.90;;;;;;5078251;28;20224;-70
2023/05/17 04:13:08;;;;;;;20.90;9.47;;;10.10;99.90;;;;;;5061696;28;21178;-71
2023/05/17 04:15:36;;;;;;;14.07;7.60;;;10.00;99.90;;;;;;5050044;28;20279;-72
2023/05/17 04:18:05;;;;;;;11.33;7.93;;;10.10;99.90;;;;;;5073058;28;20278;-71
2023/05/17 04:20:32;;;;;;;11.87;6.37;;;10.50;99.90;;;;;;5062407;28;20286;-71
2023/05/17 04:22:59;;;;;;;15.13;8.00;;;10.90;99.90;;;;;;5082158;28;20732;-71
2023/05/17 04:25:29;;;;;;;17.43;8.47;;;11.30;99.90;;;;;;5057319;28;20283;-72
2023/05/17 04:27:56;;;;;;;15.83;8.77;;;12.10;99.90;;;;;;5041982;28;20198;-71
2023/05/17 04:30:24;;;;;;;16.07;7.37;;;12.80;99.90;;;;;;5063356;28;20206;-70
2023/05/17 04:32:51;;;;;;;12.50;6.00;;;13.20;99.90;;;;;;5065652;28;20210;-71
2023/05/17 04:35:18;;;;;;;13.03;5.20;;;13.50;99.90;;;;;;5078352;28;20238;-72
2023/05/17 04:37:49;;;;;;;12.40;4.93;;;13.80;99.90;;;;;;5053465;28;20599;-72
2023/05/17 04:40:20;;;;;;;11.37;4.90;;;14.20;99.90;;;;;;5052128;28;20217;-72
2023/05/17 04:42:48;;;;;;;13.38;4.80;;;14.60;99.90;;;;;;5054117;28;20281;-70
2023/05/17 04:45:16;;;;;;;10.38;5.10;;;15.00;99.90;;;;;;5085303;28;20229;-71
2023/05/17 04:47:43;;;;;;;9.75;4.45;;;15.40;99.90;;;;;;5052269;28;20912;-70
2023/05/17 04:50:11;;;;;;;8.73;4.18;;;15.70;99.90;;;;;;5064344;28;20470;-70
2023/05/17 04:52:38;;;;;;;12.70;4.95;;;16.00;99.90;;;;;;5066597;28;20202;-72
2023/05/17 04:55:07;;;;;;;11.63;5.57;;;16.20;99.90;;;;;;5066937;28;20206;-73
2023/05/17 04:57:35;;;;;;;22.73;9.93;;;15.90;99.90;;;;;;5063674;28;20277;-71
2023/05/17 05:00:05;;;;;;;19.40;8.70;;;16.20;99.90;;;;;;5083149;28;20285;-73
2023/05/17 05:02:33;;;;;;;13.77;6.75;;;16.60;99.90;;;;;;5059084;28;20187;-72
2023/05/17 05:05:03;;;;;;;14.43;6.63;;;16.80;99.90;;;;;;5047082;28;20284;-70
2023/05/17 05:07:31;;;;;;;10.48;5.97;;;17.20;99.90;;;;;;5080506;28;20199;-72
2023/05/17 05:09:59;;;;;;;11.68;5.40;;;17.30;99.90;;;;;;5071341;28;20198;-70
2023/05/17 05:12:27;;;;;;;9.93;4.32;;;17.50;99.90;;;;;;5053355;28;20205;-70
2023/05/17 05:14:55;;;;;;;13.05;4.55;;;18.10;99.90;;;;;;5066665;28;20367;-73
2023/05/17 05:17:23;;;;;;;13.75;6.93;;;18.50;99.90;;;;;;5067373;28;20218;-72
2023/05/17 05:19:50;;;;;;;13.70;7.13;;;18.90;99.90;;;;;;5079802;28;20185;-71
2023/05/17 05:22:18;;;;;;;22.83;14.55;;;18.40;99.90;;;;;;5065017;28;20218;-70
2023/05/17 05:24:45;;;;;;;20.65;11.63;;;18.60;99.90;;;;;;5066464;28;20233;-70
2023/05/17 05:27:12;;;;;;;17.60;10.52;;;19.30;99.90;;;;;;5063265;28;20217;-70
2023/05/17 05:29:41;;;;;;;18.67;10.43;;;20.10;99.90;;;;;;5061400;28;20260;-70
2023/05/17 05:32:08;;;;;;;26.75;18.83;;;19.90;99.90;;;;;;5063986;28;20210;-70
2023/05/17 05:34:42;;;;;;;25.30;15.05;;;20.20;99.90;;;;;;5046882;28;20229;-71
2023/05/17 05:37:08;;;;;;;23.33;15.85;;;20.60;99.90;;;;;;5064018;28;20197;-67
2023/05/17 05:39:36;;;;;;;18.58;12.63;;;20.70;99.90;;;;;;5059797;28;20694;-67
2023/05/17 05:42:03;;;;;;;12.20;7.93;;;20.50;99.90;;;;;;5057619;28;20941;-68
2023/05/17 05:44:30;;;;;;;12.57;6.53;;;20.90;99.90;;;;;;5064897;28;20248;-68
2023/05/17 05:46:57;;;;;;;12.57;6.03;;;20.80;99.90;;;;;;5063658;28;20186;-68
2023/05/17 05:49:25;;;;;;;9.20;4.07;;;21.40;99.90;;;;;;5047742;28;20263;-70
2023/05/17 05:51:53;;;;;;;11.52;4.38;;;21.70;99.90;;;;;;5068200;28;20202;-69
2023/05/17 05:54:21;;;;;;;14.65;4.50;;;21.20;99.90;;;;;;5052032;28;20202;-68
2023/05/17 05:56:50;;;;;;;12.25;4.30;;;20.80;99.90;;;;;;5070217;28;20186;-70
2023/05/17 05:59:18;;;;;;;10.80;3.95;;;21.90;99.90;;;;;;5065535;28;20196;-67
2023/05/17 06:01:46;;;;;;;14.70;4.03;;;22.40;99.90;;;;;;5083558;28;20678;-69
2023/05/17 06:04:13;;;;;;;10.60;3.85;;;21.30;99.90;;;;;;5081606;28;20229;-68
2023/05/17 06:06:40;;;;;;;15.52;4.30;;;20.50;99.90;;;;;;5068143;28;20202;-68
2023/05/17 06:09:13;;;;;;;16.83;4.80;;;20.70;99.90;;;;;;5085310;28;20198;-69
2023/05/17 06:11:40;;;;;;;13.52;4.22;;;20.80;99.90;;;;;;5084422;28;20186;-69
2023/05/17 06:14:07;;;;;;;11.90;3.80;;;21.40;99.90;;;;;;5086388;28;20684;-68
2023/05/17 06:16:34;;;;;;;9.15;3.60;;;22.40;99.90;;;;;;5086777;28;20178;-68
2023/05/17 06:19:02;;;;;;;12.82;4.30;;;21.90;99.90;;;;;;5065807;28;20674;-69
2023/05/17 06:21:30;;;;;;;16.48;4.93;;;19.40;99.90;;;;;;5078291;28;20183;-70
2023/05/17 06:23:57;;;;;;;10.23;4.18;;;19.90;99.90;;;;;;5070546;28;20206;-71
2023/05/17 06:26:24;;;;;;;14.23;5.00;;;20.90;99.90;;;;;;5071240;28;20561;-71
2023/05/17 06:28:52;;;;;;;17.08;5.25;;;21.00;99.90;;;;;;5088990;28;20195;-70
2023/05/17 06:31:20;;;;;;;17.77;6.53;;;22.20;99.90;;;;;;5077091;28;20567;-69
2023/05/17 06:33:47;;;;;;;13.88;5.35;;;21.80;99.90;;;;;;5081929;28;20269;-71
2023/05/17 06:36:14;;;;;;;14.15;5.75;;;21.20;99.90;;;;;;5086185;28;20309;-71
2023/05/17 06:38:43;;;;;;;14.27;5.20;;;18.20;99.90;;;;;;5085292;28;20309;-70
2023/05/17 06:41:10;;;;;;;13.85;5.05;;;17.40;99.90;;;;;;5072811;28;20571;-71
2023/05/17 06:43:38;;;;;;;13.63;4.75;;;18.30;99.90;;;;;;5085603;28;20198;-70
2023/05/17 06:46:05;;;;;;;17.08;5.35;;;20.00;99.90;;;;;;5081764;28;20656;-69
2023/05/17 06:48:34;;;;;;;15.43;4.40;;;19.80;99.90;;;;;;5083261;28;20682;-70
2023/05/17 06:51:02;;;;;;;13.80;4.30;;;20.70;99.90;;;;;;5083645;28;20694;-69
2023/05/17 06:53:29;;;;;;;10.88;3.95;;;21.20;99.90;;;;;;5069896;28;20267;-69
2023/05/17 06:55:56;;;;;;;12.48;3.78;;;20.60;99.90;;;;;;5056206;28;20210;-69
2023/05/17 06:58:23;;;;;;;9.32;3.40;;;22.60;99.90;;;;;;5083994;28;20198;-71
2023/05/17 07:00:50;;;;;;;10.70;3.65;;;21.50;99.90;;;;;;5084038;28;20226;-70
2023/05/17 07:03:17;;;;;;;11.23;3.50;;;18.90;99.90;;;;;;5069334;28;20206;-70
2023/05/17 07:05:44;;;;;;;13.20;3.85;;;17.00;99.90;;;;;;5085561;28;20190;-69
2023/05/17 07:08:14;;;;;;;13.18;4.32;;;16.70;99.90;;;;;;5080347;28;20697;-71
2023/05/17 07:10:41;;;;;;;9.15;3.83;;;15.70;99.90;;;;;;5083948;28;20268;-68
2023/05/17 07:13:08;;;;;;;13.13;4.38;;;16.00;99.90;;;;;;5083423;28;20203;-70
2023/05/17 07:15:35;;;;;;;13.30;3.13;;;15.80;99.90;;;;;;5064925;28;21107;-69
2023/05/17 07:18:02;;;;;;;13.55;3.83;;;15.70;99.90;;;;;;5081075;28;20190;-69
2023/05/17 07:20:29;;;;;;;16.33;4.60;;;17.00;99.90;;;;;;5084779;28;20216;-69
2023/05/17 07:22:56;;;;;;;19.20;3.88;;;16.50;99.90;;;;;;5062993;28;20198;-70
2023/05/17 07:25:23;;;;;;;14.82;4.72;;;16.20;99.90;;;;;;5066806;28;20285;-69
2023/05/17 07:27:50;;;;;;;15.65;4.38;;;16.60;99.90;;;;;;5081954;28;20336;-70
2023/05/17 07:30:17;;;;;;;13.98;3.83;;;16.50;99.90;;;;;;5068588;28;20199;-72
2023/05/17 07:32:44;;;;;;;15.70;3.63;;;15.80;99.90;;;;;;5063683;28;20655;-70
2023/05/17 07:35:11;;;;;;;10.38;3.03;;;15.70;99.90;;;;;;5082953;28;20641;-71
2023/05/17 07:37:38;;;;;;;13.27;3.05;;;15.50;99.90;;;;;;5062855;28;20228;-69
2023/05/17 07:40:06;;;;;;;13.52;3.30;;;15.80;99.90;;;;;;5065552;28;20236;-72
2023/05/17 07:42:33;;;;;;;10.02;3.17;;;19.10;99.90;;;;;;5081658;28;20689;-69
2023/05/17 07:45:00;;;;;;;9.60;3.30;;;21.60;99.90;;;;;;5062579;28;20241;-71
2023/05/17 07:47:27;;;;;;;8.18;2.70;;;21.80;99.90;;;;;;5081354;28;20199;-70
2023/05/17 07:49:54;;;;;;;8.93;2.70;;;23.60;99.90;;;;;;5065121;28;20203;-71
2023/05/17 07:52:21;;;;;;;8.23;3.20;;;26.00;99.90;;;;;;5082647;28;20281;-69
2023/05/17 07:54:48;;;;;;;11.32;3.03;;;25.00;99.90;;;;;;5054181;28;20691;-69
2023/05/17 07:57:15;;;;;;;11.05;2.92;;;24.90;99.90;;;;;;5065582;28;20317;-70
2023/05/17 07:59:43;;;;;;;11.13;3.00;;;27.20;99.90;;;;;;5066270;28;20265;-70
2023/05/17 08:02:10;;;;;;;8.27;2.72;;;29.40;99.90;;;;;;5068924;28;20216;-70
2023/05/17 08:04:37;;;;;;;8.32;2.92;;;28.80;99.90;;;;;;5085224;28;20230;-70
2023/05/17 08:07:04;;;;;;;6.72;2.30;;;25.70;99.90;;;;;;5078965;28;20617;-70
2023/05/17 08:09:31;;;;;;;7.65;2.70;;;23.90;99.90;;;;;;5084919;28;20659;-69
2023/05/17 08:11:58;;;;;;;9.70;3.20;;;23.00;99.90;;;;;;5073386;28;20268;-69
2023/05/17 08:14:26;;;;;;;9.30;2.72;;;21.60;99.90;;;;;;5083356;28;20218;-69
2023/05/17 08:16:52;;;;;;;8.63;3.58;;;20.20;99.90;;;;;;5080863;28;20218;-70
2023/05/17 08:19:19;;;;;;;7.45;3.10;;;23.40;99.90;;;;;;5066407;28;20202;-70
2023/05/17 08:21:48;;;;;;;20.23;9.75;;;26.40;99.90;;;;;;5069343;28;20225;-70
2023/05/17 08:24:16;;;;;;;11.80;4.78;;;23.80;99.90;;;;;;5066877;28;20240;-70
2023/05/17 08:26:43;;;;;;;8.10;4.30;;;21.80;99.90;;;;;;5077928;28;20195;-72
2023/05/17 08:29:10;;;;;;;8.88;4.47;;;20.50;99.90;;;;;;5082994;28;20730;-71
2023/05/17 08:31:37;;;;;;;11.77;6.30;;;19.30;99.90;;;;;;5086258;28;20186;-71
2023/05/17 08:34:04;;;;;;;8.23;3.65;;;18.30;99.90;;;;;;5067654;28;20268;-69
2023/05/17 08:36:31;;;;;;;6.68;3.58;;;18.60;99.90;;;;;;5083426;28;20222;-71
2023/05/17 08:38:58;;;;;;;7.80;3.15;;;20.70;99.90;;;;;;5084040;28;20183;-70
2023/05/17 08:41:26;;;;;;;10.15;2.63;;;22.20;99.90;;;;;;5064809;28;20205;-70
2023/05/17 08:43:55;;;;;;;8.73;2.72;;;25.30;99.90;;;;;;5081723;28;20258;-70
2023/05/17 08:46:23;;;;;;;6.25;3.28;;;23.60;99.90;;;;;;5054860;28;20217;-71
2023/05/17 08:48:52;;;;;;;7.43;2.80;;;24.20;99.90;;;;;;5069575;28;20231;-70
2023/05/17 08:51:20;;;;;;;8.13;3.05;;;25.20;99.90;;;;;;5070619;28;20281;-70
2023/05/17 08:53:49;;;;;;;9.15;3.38;;;22.60;99.90;;;;;;5077880;28;20628;-70
2023/05/17 08:56:18;;;;;;;5.28;3.28;;;24.00;99.90;;;;;;5078860;28;20198;-70
2023/05/17 08:58:50;;;;;;;7.85;3.40;;;21.40;99.90;;;;;;5073356;28;20195;-70
2023/05/17 09:01:24;;;;;;;8.45;2.72;;;21.40;99.90;;;;;;5078264;28;20196;-70
2023/05/17 09:03:53;;;;;;;9.50;3.35;;;20.50;99.90;;;;;;5091008;28;20313;-70
2023/05/17 09:06:22;;;;;;;9.00;3.10;;;20.20;99.90;;;;;;5075554;28;20694;-70
2023/05/17 09:08:57;;;;;;;7.15;3.05;;;20.30;99.90;;;;;;5076204;28;20297;-68
2023/05/17 09:11:29;;;;;;;10.07;4.05;;;24.00;99.90;;;;;;5089566;28;20197;-68
2023/05/17 09:13:58;;;;;;;7.82;3.38;;;27.20;99.90;;;;;;5062479;28;20194;-68
2023/05/17 09:16:30;;;;;;;7.15;3.38;;;27.80;99.90;;;;;;5075546;28;20225;-68
2023/05/17 09:18:58;;;;;;;4.72;2.25;;;28.50;99.90;;;;;;5080039;28;20212;-70
2023/05/17 09:21:26;;;;;;;8.38;2.63;;;29.80;99.90;;;;;;5073575;28;20197;-70
2023/05/17 09:23:54;;;;;;;7.05;2.35;;;29.00;99.90;;;;;;5079539;28;20256;-70
2023/05/17 09:26:24;;;;;;;6.18;2.25;;;26.70;99.90;;;;;;5072739;28;20682;-70
2023/05/17 09:28:52;;;;;;;7.57;2.50;;;27.20;99.90;;;;;;5092165;28;20277;-71
2023/05/17 09:31:19;;;;;;;8.73;2.40;;;24.90;99.90;;;;;;5076809;28;20206;-72
2023/05/17 09:33:49;;;;;;;7.13;2.63;;;23.00;99.90;;;;;;5096513;28;20194;-70
2023/05/17 09:36:21;;;;;;;10.45;2.80;;;22.20;99.90;;;;;;5089311;28;20209;-71
2023/05/17 09:39:10;;;;;;;7.05;2.30;;;22.70;99.90;;;;;;5084591;28;20708;-68
2023/05/17 09:41:42;;;;;;;7.05;2.08;;;27.00;99.90;;;;;;5081652;28;20192;-70
2023/05/17 09:44:10;;;;;;;6.07;2.22;;;28.90;99.90;;;;;;5083260;28;20198;-71
2023/05/17 09:46:43;;;;;;;8.32;2.28;;;28.70;99.90;;;;;;5067192;28;20206;-69
2023/05/17 09:49:11;;;;;;;8.95;2.90;;;29.70;99.90;;;;;;5084482;28;20586;-70
2023/05/17 09:51:45;;;;;;;7.95;2.95;;;29.60;99.90;;;;;;5088298;28;20562;-71
2023/05/17 09:54:12;;;;;;;8.75;2.75;;;26.40;99.90;;;;;;5072773;28;20198;-69
2023/05/17 09:56:40;;;;;;;7.35;3.08;;;27.10;99.90;;;;;;5070646;28;20213;-70
2023/05/17 09:59:15;;;;;;;7.00;3.10;;;26.20;99.90;;;;;;5085234;28;20247;-71
2023/05/17 10:01:44;;;;;;;5.82;2.80;;;23.90;99.90;;;;;;5085651;28;20233;-70
2023/05/17 10:04:19;;;;;;;9.82;2.72;;;22.60;99.90;;;;;;5068821;28;20344;-70
2023/05/17 10:06:49;;;;;;;8.77;2.50;;;24.80;99.90;;;;;;5087162;28;20194;-70
2023/05/17 10:09:23;;;;;;;10.73;2.63;;;25.20;99.90;;;;;;5072662;28;20794;-70
2023/05/17 10:11:53;;;;;;;7.78;2.50;;;24.60;99.90;;;;;;5090325;28;20575;-70
2023/05/17 10:14:27;;;;;;;7.53;2.70;;;24.40;99.90;;;;;;5076907;28;20232;-69
2023/05/17 10:16:56;;;;;;;7.40;2.42;;;24.20;99.90;;;;;;5068964;28;20214;-69
2023/05/17 10:19:24;;;;;;;9.35;2.70;;;23.60;99.90;;;;;;5084057;28;20182;-67
2023/05/17 10:21:53;;;;;;;8.35;2.30;;;22.20;99.90;;;;;;5085716;28;20698;-68
2023/05/17 10:24:21;;;;;;;6.20;2.08;;;21.00;99.90;;;;;;5088210;28;20282;-68
2023/05/17 10:26:50;;;;;;;6.00;2.20;;;22.10;99.90;;;;;;5081494;28;20239;-69
2023/05/17 10:29:19;;;;;;;5.05;2.25;;;21.90;99.90;;;;;;5070516;28;20301;-69
2023/05/17 10:31:51;;;;;;;7.20;2.38;;;24.00;99.90;;;;;;5084232;28;20202;-68
2023/05/17 10:34:19;;;;;;;8.52;2.55;;;25.20;99.90;;;;;;5066456;28;20207;-68
2023/05/17 10:36:48;;;;;;;8.55;2.63;;;24.30;99.90;;;;;;5083768;28;20210;-70
2023/05/17 10:39:17;;;;;;;5.20;2.42;;;20.90;99.90;;;;;;5066219;28;20194;-70
2023/05/17 10:41:46;;;;;;;8.55;2.40;;;20.80;99.90;;;;;;5079330;28;20197;-65
2023/05/17 10:44:16;;;;;;;7.15;2.30;;;20.70;99.90;;;;;;5064435;28;20727;-66
2023/05/17 10:46:54;;;;;;;4.05;2.03;;;20.90;99.90;;;;;;5054573;28;20201;-72
2023/05/17 10:49:28;;;;;;;9.38;2.60;;;23.40;99.90;;;;;;5069432;28;20217;-69
2023/05/17 10:52:12;;;;;;;7.00;2.05;;;25.70;99.90;;;;;;5087360;28;20186;-69
2023/05/17 10:54:41;;;;;;;6.65;2.15;;;23.60;99.90;;;;;;5089523;28;20217;-68
2023/05/17 10:57:21;;;;;;;8.30;2.00;;;23.30;99.90;;;;;;5091174;28;20213;-69
2023/05/17 10:59:58;;;;;;;6.15;2.38;;;22.20;99.90;;;;;;5091194;28;20665;-69
2023/05/17 11:02:26;;;;;;;5.72;2.03;;;22.30;99.90;;;;;;5069977;28;20192;-69
2023/05/17 11:04:55;;;;;;;7.40;2.00;;;22.20;99.90;;;;;;5077867;28;20240;-69
2023/05/17 11:07:31;;;;;;;5.93;2.63;;;22.30;99.90;;;;;;5075730;28;20612;-67
2023/05/17 11:10:12;;;;;;;7.50;2.28;;;22.50;99.90;;;;;;5068717;28;20259;-68
2023/05/17 11:12:45;;;;;;;8.52;2.35;;;21.00;99.90;;;;;;5053778;28;20680;-68
2023/05/17 11:15:14;;;;;;;6.63;2.22;;;22.00;99.90;;;;;;5080162;28;20194;-68
2023/05/17 11:17:41;;;;;;;8.90;2.67;;;23.50;99.90;;;;;;5079408;28;20260;-69
2023/05/17 11:20:15;;;;;;;7.53;2.67;;;24.40;99.90;;;;;;5090041;28;20197;-68
2023/05/17 11:22:54;;;;;;;6.50;2.38;;;24.60;99.90;;;;;;5088158;28;20187;-68
2023/05/17 11:25:21;;;;;;;7.57;2.28;;;24.40;99.90;;;;;;5090987;28;20622;-68
2023/05/17 11:27:50;;;;;;;5.30;2.40;;;21.40;99.90;;;;;;5083312;28;20252;-68
2023/05/17 11:30:30;;;;;;;8.65;2.78;;;20.30;99.90;;;;;;5086057;28;20194;-70
2023/05/17 11:33:05;;;;;;;7.53;2.20;;;19.80;99.90;;;;;;5085955;28;20200;-69
2023/05/17 11:35:43;;;;;;;11.75;2.70;;;20.50;99.90;;;;;;5065221;28;20683;-67
2023/05/17 11:38:14;;;;;;;7.03;2.60;;;21.90;99.90;;;;;;5086747;28;20194;-70
2023/05/17 11:40:42;;;;;;;8.20;2.70;;;23.80;99.90;;;;;;5085450;28;20189;-71
2023/05/17 11:43:16;;;;;;;7.55;2.40;;;23.60;99.90;;;;;;5061005;28;20186;-70
2023/05/17 11:45:49;;;;;;;5.88;2.53;;;23.60;99.90;;;;;;5086911;28;20201;-70
2023/05/17 11:48:21;;;;;;;6.07;2.38;;;24.40;99.90;;;;;;5089870;28;20201;-70
2023/05/17 11:50:50;;;;;;;7.88;2.63;;;22.60;99.90;;;;;;5079148;28;20237;-70
2023/05/17 11:53:18;;;;;;;6.10;2.40;;;20.90;99.90;;;;;;5082748;28;20187;-69
2023/05/17 11:55:49;;;;;;;6.38;2.10;;;20.20;99.90;;;;;;5082364;28;20265;-70
2023/05/17 11:58:19;;;;;;;9.38;2.28;;;20.20;99.90;;;;;;5071548;28;20206;-69
2023/05/17 12:00:52;;;;;;;11.70;2.90;;;20.00;99.90;;;;;;5082225;28;20857;-68
2023/05/17 12:03:24;;;;;;;4.80;2.10;;;20.00;99.90;;;;;;5068206;28;20625;-69
2023/05/17 12:06:09;;;;;;;7.07;2.53;;;19.80;99.90;;;;;;5064249;28;20753;-69
2023/05/17 12:08:38;;;;;;;9.35;2.58;;;20.80;99.90;;;;;;5087141;28;20191;-70
2023/05/17 12:11:09;;;;;;;5.85;2.50;;;22.10;99.90;;;;;;5082302;28;20604;-70
2023/05/17 12:13:40;;;;;;;7.40;2.22;;;20.80;99.90;;;;;;5082330;28;20192;-70
2023/05/17 12:16:12;;;;;;;8.88;2.50;;;20.00;99.90;;;;;;5075422;28;20280;-70
2023/05/17 12:18:47;;;;;;;6.63;2.22;;;20.10;99.90;;;;;;5080579;28;20235;-70
2023/05/17 12:21:16;;;;;;;6.18;2.00;;;20.40;99.90;;;;;;5081711;28;20197;-70
2023/05/17 12:23:45;;;;;;;9.85;2.92;;;21.20;99.90;;;;;;5086018;28;20237;-70
2023/05/17 12:26:17;;;;;;;6.88;2.10;;;20.90;99.90;;;;;;5072192;28;20643;-70
2023/05/17 12:28:46;;;;;;;8.25;2.17;;;20.90;99.90;;;;;;5083537;28;20641;-70
2023/05/17 12:31:18;;;;;;;5.47;2.17;;;21.10;99.90;;;;;;5081743;28;20194;-69
2023/05/17 12:33:46;;;;;;;6.40;2.40;;;21.30;99.90;;;;;;5084355;28;20289;-69
2023/05/17 12:36:14;;;;;;;6.18;2.15;;;20.80;99.90;;;;;;5052201;28;20216;-68
2023/05/17 12:38:43;;;;;;;4.95;2.00;;;21.10;99.90;;;;;;5079723;28;20182;-68
2023/05/17 12:41:11;;;;;;;6.25;2.15;;;21.20;99.90;;;;;;5087908;28;20190;-68
2023/05/17 12:43:39;;;;;;;7.80;2.17;;;20.70;99.90;;;;;;5082360;28;20556;-68
2023/05/17 12:46:17;;;;;;;8.20;2.45;;;20.00;99.90;;;;;;5080587;28;20228;-70
2023/05/17 12:48:45;;;;;;;6.30;2.30;;;18.80;99.90;;;;;;5078612;28;20639;-70
2023/05/17 12:51:17;;;;;;;8.23;2.55;;;18.70;99.90;;;;;;5086695;28;20197;-69
2023/05/17 12:53:52;;;;;;;9.40;2.67;;;18.80;99.90;;;;;;5071528;28;20190;-70
2023/05/17 12:56:21;;;;;;;7.10;2.10;;;18.40;99.90;;;;;;5086741;28;20731;-71